createdAt,value
2023-04-15T00:01:10.218Z,101058.53
2023-04-15T00:03:37.364Z,101050.34
2023-04-15T00:06:04.485Z,101064.13
2023-04-15T00:08:31.229Z,101055.63
2023-04-15T00:11:02.697Z,101042.78
2023-04-15T00:13:29.828Z,101064.91
2023-04-15T00:15:56.496Z,101065.03
2023-04-15T00:18:24.768Z,101064.19
2023-04-15T00:20:52.689Z,101070.59
2023-04-15T00:23:19.364Z,101029.94
2023-04-15T00:25:46.929Z,101055.78
2023-04-15T00:28:13.953Z,101049.88
2023-04-15T00:30:40.550Z,100990.56
2023-04-15T00:33:07.991Z,101065.56
2023-04-15T00:35:35.871Z,101042.94
2023-04-15T00:38:02.488Z,100992.50
2023-04-15T00:40:29.151Z,101035.88
2023-04-15T00:42:55.772Z,101070.69
2023-04-15T00:45:22.746Z,101032.09
2023-04-15T00:47:49.752Z,101057.63
2023-04-15T00:50:16.503Z,101075.66
2023-04-15T00:52:43.084Z,101045.28
2023-04-15T00:55:10.212Z,101035.91
2023-04-15T00:57:38.944Z,101055.63
2023-04-15T01:00:08.030Z,101065.84
2023-04-15T01:02:36.523Z,101076.78
2023-04-15T01:05:05.504Z,101074.28
2023-04-15T01:07:32.404Z,101069.66
2023-04-15T01:09:59.522Z,101075.44
2023-04-15T01:12:27.354Z,101062.03
2023-04-15T01:14:55.056Z,101044.78
2023-04-15T01:17:21.802Z,101076.19
2023-04-15T01:19:48.944Z,101062.16
2023-04-15T01:22:16.168Z,101062.91
2023-04-15T01:24:52.346Z,101091.34
2023-04-15T01:27:19.543Z,101065.00
2023-04-15T01:29:46.421Z,101060.13
2023-04-15T01:32:13.124Z,101062.69
2023-04-15T01:34:39.702Z,101082.28
2023-04-15T01:37:06.955Z,101075.75
2023-04-15T01:39:33.780Z,101067.53
2023-04-15T01:42:00.425Z,101067.94
2023-04-15T01:44:27.705Z,101076.97
2023-04-15T01:46:54.684Z,101082.06
2023-04-15T01:49:21.281Z,101089.03
2023-04-15T01:51:48.094Z,101086.56
2023-04-15T01:54:14.829Z,101080.03
2023-04-15T01:56:41.421Z,101075.09
2023-04-15T01:59:08.664Z,101074.91
2023-04-15T02:01:35.497Z,101084.38
2023-04-15T02:04:02.252Z,101062.25
2023-04-15T02:06:28.960Z,101080.97
2023-04-15T02:08:55.634Z,101084.59
2023-04-15T02:11:23.234Z,101082.25
2023-04-15T02:13:49.971Z,101058.72
2023-04-15T02:16:19.885Z,101087.41
2023-04-15T02:18:47.088Z,101090.03
2023-04-15T02:21:14.237Z,101073.16
2023-04-15T02:23:41.203Z,101071.88
2023-04-15T02:26:08.194Z,101088.97
2023-04-15T02:28:34.956Z,101078.22
2023-04-15T02:31:09.664Z,101085.78
2023-04-15T02:33:37.834Z,101091.25
2023-04-15T02:36:04.900Z,101106.66
2023-04-15T02:38:32.072Z,101100.44
2023-04-15T02:40:58.780Z,101113.41
2023-04-15T02:43:25.389Z,101107.63
2023-04-15T02:45:52.560Z,101086.63
2023-04-15T02:48:20.406Z,101105.38
2023-04-15T02:50:48.062Z,101095.88
2023-04-15T02:53:14.944Z,101124.53
2023-04-15T02:55:42.838Z,101121.56
2023-04-15T02:58:09.642Z,101097.94
2023-04-15T03:00:36.382Z,101130.75
2023-04-15T03:03:04.518Z,101137.41
2023-04-15T03:05:31.653Z,101140.16
2023-04-15T03:07:58.312Z,101137.16
2023-04-15T03:10:25.478Z,101136.22
2023-04-15T03:12:52.144Z,101142.44
2023-04-15T03:15:19.171Z,101134.72
2023-04-15T03:17:46.047Z,101151.28
2023-04-15T03:20:14.493Z,101137.56
2023-04-15T03:22:41.305Z,101114.13
2023-04-15T03:25:08.308Z,101139.84
2023-04-15T03:27:34.913Z,101128.97
2023-04-15T03:30:01.769Z,101152.78
2023-04-15T03:32:29.061Z,101125.03
2023-04-15T03:34:55.765Z,101136.19
2023-04-15T03:37:22.438Z,101162.78
2023-04-15T03:39:49.069Z,101154.97
2023-04-15T03:42:15.726Z,101121.56
2023-04-15T03:44:42.430Z,101125.78
2023-04-15T03:47:09.207Z,101160.00
2023-04-15T03:49:36.888Z,101134.63
2023-04-15T03:52:03.581Z,101162.63
2023-04-15T03:54:30.411Z,101161.88
2023-04-15T03:56:57.722Z,101143.09
2023-04-15T03:59:24.501Z,101130.88
2023-04-15T04:01:51.433Z,101155.31
2023-04-15T04:04:18.155Z,101164.91
2023-04-15T04:06:45.028Z,101166.88
2023-04-15T04:09:11.759Z,101160.28
2023-04-15T04:11:38.314Z,101166.28
2023-04-15T04:14:05.047Z,101157.94
2023-04-15T04:16:31.740Z,101163.22
2023-04-15T04:18:58.359Z,101184.63
2023-04-15T04:21:25.241Z,101175.44
2023-04-15T04:23:52.188Z,101147.63
2023-04-15T04:26:19.780Z,101178.16
2023-04-15T04:28:46.681Z,101180.19
2023-04-15T04:31:13.454Z,101180.03
2023-04-15T04:33:40.431Z,101158.31
2023-04-15T04:36:07.331Z,101189.06
2023-04-15T04:38:34.076Z,101168.28
2023-04-15T04:41:01.032Z,101184.06
2023-04-15T04:43:27.671Z,101188.78
2023-04-15T04:45:54.459Z,101187.91
2023-04-15T04:48:21.286Z,101195.72
2023-04-15T04:50:48.230Z,101197.41
2023-04-15T04:53:15.150Z,101185.59
2023-04-15T04:55:41.724Z,101194.03
2023-04-15T04:58:08.415Z,101194.97
2023-04-15T05:00:35.087Z,101197.22
2023-04-15T05:03:01.926Z,101182.84
2023-04-15T05:05:28.738Z,101171.69
2023-04-15T05:07:55.657Z,101135.13
2023-04-15T05:10:22.267Z,101177.22
2023-04-15T05:12:49.208Z,101199.66
2023-04-15T05:15:15.923Z,101213.00
2023-04-15T05:17:42.639Z,101224.06
2023-04-15T05:20:10.411Z,101218.91
2023-04-15T05:22:37.334Z,101226.44
2023-04-15T05:25:04.290Z,101222.69
2023-04-15T05:27:30.943Z,101204.78
2023-04-15T05:29:57.560Z,101225.69
2023-04-15T05:32:24.384Z,101218.13
2023-04-15T05:34:51.471Z,101208.84
2023-04-15T05:37:20.869Z,101237.53
2023-04-15T05:39:48.333Z,101238.56
2023-04-15T05:42:15.821Z,101219.91
2023-04-15T05:44:42.748Z,101229.47
2023-04-15T05:47:10.322Z,101250.16
2023-04-15T05:49:37.247Z,101234.50
2023-04-15T05:52:04.192Z,101257.00
2023-04-15T05:54:31.283Z,101243.41
2023-04-15T05:56:58.554Z,101259.81
2023-04-15T05:59:25.279Z,101253.91
2023-04-15T06:01:52.350Z,101273.84
2023-04-15T06:04:19.331Z,101266.56
2023-04-15T06:06:46.320Z,101277.31
2023-04-15T06:09:12.902Z,101228.38
2023-04-15T06:11:41.325Z,101276.63
2023-04-15T06:14:08.349Z,101285.81
2023-04-15T06:16:36.831Z,101293.06
2023-04-15T06:19:03.954Z,101289.94
2023-04-15T06:21:31.521Z,101276.72
2023-04-15T06:24:01.334Z,101284.91
2023-04-15T06:26:28.282Z,101275.91
2023-04-15T06:28:55.688Z,101300.78
2023-04-15T06:31:22.477Z,101302.84
2023-04-15T06:33:49.261Z,101289.38
2023-04-15T06:36:16.389Z,101315.44
2023-04-15T06:38:42.997Z,101278.63
2023-04-15T06:41:09.951Z,101301.06
2023-04-15T06:43:36.837Z,101290.00
2023-04-15T06:46:03.708Z,101306.97
2023-04-15T06:48:30.475Z,101310.28
2023-04-15T06:50:58.373Z,101299.41
2023-04-15T06:53:28.303Z,101320.25
2023-04-15T06:55:55.327Z,101334.81
2023-04-15T06:58:22.450Z,101334.66
2023-04-15T07:00:49.387Z,101330.44
2023-04-15T07:03:16.342Z,101324.91
2023-04-15T07:05:44.865Z,101297.31
2023-04-15T07:08:11.552Z,101323.41
2023-04-15T07:10:38.293Z,101334.16
2023-04-15T07:13:05.934Z,101332.84
2023-04-15T07:15:32.607Z,101317.31
2023-04-15T07:17:59.509Z,101316.84
2023-04-15T07:20:26.396Z,101338.13
2023-04-15T07:22:53.221Z,101341.25
2023-04-15T07:25:20.033Z,101328.59
2023-04-15T07:27:47.466Z,101351.38
2023-04-15T07:30:14.287Z,101348.00
2023-04-15T07:32:41.920Z,101341.25
2023-04-15T07:35:09.750Z,101349.09
2023-04-15T07:37:36.587Z,101334.97
2023-04-15T07:40:07.164Z,101362.44
2023-04-15T07:42:34.729Z,101297.84
2023-04-15T07:45:01.607Z,101332.31
2023-04-15T07:47:28.668Z,101355.78
2023-04-15T07:49:55.429Z,101353.00
2023-04-15T07:52:22.292Z,101368.44
2023-04-15T07:54:49.252Z,101372.56
2023-04-15T07:57:17.083Z,101366.19
2023-04-15T07:59:43.753Z,101373.72
2023-04-15T08:02:12.063Z,101352.06
2023-04-15T08:04:39.494Z,101340.47
2023-04-15T08:07:06.308Z,101369.53
2023-04-15T08:09:33.129Z,101370.38
2023-04-15T08:11:59.991Z,101370.38
2023-04-15T08:14:27.061Z,101382.19
2023-04-15T08:16:53.771Z,101358.31
2023-04-15T08:19:21.220Z,101357.34
2023-04-15T08:21:47.864Z,101396.50
2023-04-15T08:24:14.616Z,101383.56
2023-04-15T08:26:42.047Z,101397.75
2023-04-15T08:29:09.261Z,101387.88
2023-04-15T08:31:36.128Z,101368.09
2023-04-15T08:34:03.564Z,101329.16
2023-04-15T08:36:30.899Z,101396.81
2023-04-15T08:38:57.597Z,101353.16
2023-04-15T08:41:25.742Z,101395.94
2023-04-15T08:43:54.915Z,101394.03
2023-04-15T08:46:22.820Z,101386.56
2023-04-15T08:48:50.387Z,101401.50
2023-04-15T08:51:18.306Z,101395.81
2023-04-15T08:53:46.605Z,101385.28
2023-04-15T08:56:15.908Z,101399.16
2023-04-15T08:58:46.787Z,101381.31
2023-04-15T09:01:13.657Z,101381.47
2023-04-15T09:03:40.819Z,101389.91
2023-04-15T09:06:07.701Z,101401.31
2023-04-15T09:08:35.880Z,101371.38
2023-04-15T09:11:05.900Z,101421.31
2023-04-15T09:13:32.689Z,101414.44
2023-04-15T09:16:03.928Z,101414.78
2023-04-15T09:18:36.751Z,101379.44
2023-04-15T09:21:11.635Z,101430.47
2023-04-15T09:23:40.562Z,101428.72
2023-04-15T09:26:07.790Z,101411.69
2023-04-15T09:28:42.574Z,101428.56
2023-04-15T09:31:10.456Z,101418.50
2023-04-15T09:33:55.068Z,101444.69
2023-04-15T09:36:21.654Z,101446.13
2023-04-15T09:38:59.136Z,101435.19
2023-04-15T09:41:26.469Z,101447.81
2023-04-15T09:43:53.665Z,101437.31
2023-04-15T09:46:21.201Z,101401.19
2023-04-15T09:49:07.778Z,101444.59
2023-04-15T09:51:35.965Z,101459.34
2023-04-15T09:54:02.910Z,101454.31
2023-04-15T09:56:37.463Z,101413.59
2023-04-15T09:59:05.595Z,101456.88
2023-04-15T10:01:32.656Z,101398.41
2023-04-15T10:04:02.391Z,101454.94
2023-04-15T10:06:30.439Z,101430.13
2023-04-15T10:09:01.657Z,101467.78
2023-04-15T10:11:30.445Z,101467.84
2023-04-15T10:13:58.623Z,101453.06
2023-04-15T10:16:28.762Z,101461.31
2023-04-15T10:18:56.937Z,101471.44
2023-04-15T10:21:24.013Z,101373.50
2023-04-15T10:23:51.438Z,101423.13
2023-04-15T10:26:18.582Z,101446.88
2023-04-15T10:28:47.327Z,101479.00
2023-04-15T10:31:17.392Z,101471.44
2023-04-15T10:33:44.806Z,101397.38
2023-04-15T10:36:12.595Z,101448.75
2023-04-15T10:38:48.378Z,101473.59
2023-04-15T10:41:34.572Z,101489.28
2023-04-15T10:44:03.507Z,101473.72
2023-04-15T10:46:44.115Z,101477.78
2023-04-15T10:49:25.001Z,101483.22
2023-04-15T10:51:53.792Z,101499.09
2023-04-15T10:54:27.084Z,101486.97
2023-04-15T10:57:06.598Z,101502.50
2023-04-15T10:59:37.329Z,101497.94
2023-04-15T11:02:06.796Z,101499.47
2023-04-15T11:04:58.731Z,101509.00
2023-04-15T11:07:48.485Z,101505.19
2023-04-15T11:10:18.100Z,101517.59
2023-04-15T11:12:45.638Z,101511.78
2023-04-15T11:15:35.276Z,101513.56
2023-04-15T11:18:11.250Z,101512.13
2023-04-15T11:20:40.481Z,101527.56
2023-04-15T11:23:13.890Z,101502.38
2023-04-15T11:25:44.232Z,101513.56
2023-04-15T11:28:12.139Z,101488.19
2023-04-15T11:30:40.139Z,101494.22
2023-04-15T11:33:09.347Z,101519.34
2023-04-15T11:35:36.331Z,101517.91
2023-04-15T11:38:04.545Z,101534.19
2023-04-15T11:40:33.506Z,101526.81
2023-04-15T11:43:21.099Z,101519.06
2023-04-15T11:45:49.144Z,101502.22
2023-04-15T11:48:15.859Z,101530.38
2023-04-15T11:50:42.479Z,101531.59
2023-04-15T11:53:13.080Z,101525.69
2023-04-15T11:55:47.172Z,101531.75
2023-04-15T11:58:17.123Z,101533.41
2023-04-15T12:01:04.740Z,101538.44
2023-04-15T12:03:37.874Z,101546.97
2023-04-15T12:06:19.409Z,101523.59
2023-04-15T12:08:56.356Z,101528.06
2023-04-15T12:11:47.483Z,101543.25
2023-04-15T12:14:24.669Z,101537.94
2023-04-15T12:16:58.338Z,101521.66
2023-04-15T12:19:28.825Z,101549.78
2023-04-15T12:22:01.512Z,101558.47
2023-04-15T12:24:31.459Z,101546.53
2023-04-15T12:27:01.991Z,101548.34
2023-04-15T12:29:29.194Z,101567.91
2023-04-15T12:31:58.330Z,101572.59
2023-04-15T12:34:29.630Z,101573.94
2023-04-15T12:36:57.907Z,101577.09
2023-04-15T12:39:27.657Z,101582.88
2023-04-15T12:41:57.726Z,101577.03
2023-04-15T12:44:25.121Z,101588.38
2023-04-15T12:46:53.621Z,101575.81
2023-04-15T12:49:24.712Z,101591.97
2023-04-15T12:51:53.971Z,101584.88
2023-04-15T12:54:21.712Z,101591.34
2023-04-15T12:56:50.110Z,101568.25
2023-04-15T12:59:20.322Z,101604.91
2023-04-15T13:01:48.797Z,101584.53
2023-04-15T13:04:16.476Z,101593.31
2023-04-15T13:06:43.589Z,101607.81
2023-04-15T13:09:10.823Z,101587.66
2023-04-15T13:11:37.588Z,101605.84
2023-04-15T13:14:06.900Z,101612.59
2023-04-15T13:16:34.685Z,101612.59
2023-04-15T13:19:02.589Z,101605.84
2023-04-15T13:21:31.311Z,101604.28
2023-04-15T13:23:58.082Z,101617.31
2023-04-15T13:26:25.080Z,101614.19
2023-04-15T13:28:52.031Z,101592.63
2023-04-15T13:31:18.765Z,101622.03
2023-04-15T13:33:45.767Z,101613.34
2023-04-15T13:36:12.379Z,101623.22
2023-04-15T13:38:39.073Z,101573.75
2023-04-15T13:41:06.066Z,101613.50
2023-04-15T13:43:34.295Z,101634.69
2023-04-15T13:46:01.643Z,101645.50
2023-04-15T13:48:28.870Z,101624.44
2023-04-15T13:50:55.441Z,101637.16
2023-04-15T13:53:33.912Z,101622.75
2023-04-15T13:56:09.166Z,101598.88
2023-04-15T13:58:36.455Z,101644.66
2023-04-15T14:01:05.660Z,101614.50
2023-04-15T14:03:34.635Z,101632.09
2023-04-15T14:06:01.708Z,101636.84
2023-04-15T14:08:28.403Z,101640.09
2023-04-15T14:10:55.068Z,101644.53
2023-04-15T14:13:22.022Z,101582.19
2023-04-15T14:15:48.826Z,101601.72
2023-04-15T14:18:16.227Z,101650.78
2023-04-15T14:20:42.934Z,101639.28
2023-04-15T14:23:09.572Z,101631.44
2023-04-15T14:25:36.260Z,101669.13
2023-04-15T14:28:03.553Z,101673.78
2023-04-15T14:30:30.646Z,101631.59
2023-04-15T14:32:57.485Z,101669.56
2023-04-15T14:35:26.656Z,101668.91
2023-04-15T14:37:54.037Z,101669.75
2023-04-15T14:40:20.810Z,101687.16
2023-04-15T14:42:47.689Z,101682.06
2023-04-15T14:45:14.469Z,101692.84
2023-04-15T14:47:41.330Z,101675.94
2023-04-15T14:50:08.574Z,101645.88
2023-04-15T14:52:38.913Z,101678.88
2023-04-15T14:55:07.413Z,101681.22
2023-04-15T14:57:34.294Z,101688.75
2023-04-15T15:00:00.892Z,101695.94
2023-04-15T15:02:38.462Z,101706.22
2023-04-15T15:05:07.766Z,101703.91
2023-04-15T15:07:36.088Z,101663.91
2023-04-15T15:10:02.941Z,101715.09
2023-04-15T15:12:29.620Z,101714.25
2023-04-15T15:14:56.351Z,101693.31
2023-04-15T15:17:23.147Z,101687.72
2023-04-15T15:19:50.015Z,101675.63
2023-04-15T15:22:18.076Z,101719.56
2023-04-15T15:24:46.121Z,101716.59
2023-04-15T15:27:12.919Z,101716.59
2023-04-15T15:29:39.714Z,101699.88
2023-04-15T15:32:06.477Z,101707.47
2023-04-15T15:34:33.200Z,101721.88
2023-04-15T15:37:01.123Z,101744.31
2023-04-15T15:39:28.079Z,101725.13
2023-04-15T15:41:55.220Z,101744.97
2023-04-15T15:44:21.954Z,101725.03
2023-04-15T15:46:50.064Z,101726.31
2023-04-15T15:49:16.920Z,101743.47
2023-04-15T15:51:43.574Z,101722.91
2023-04-15T15:54:10.467Z,101751.91
2023-04-15T15:56:38.624Z,101755.50
2023-04-15T15:59:05.505Z,101770.53
2023-04-15T16:01:32.405Z,101749.34
2023-04-15T16:03:59.626Z,101744.66
2023-04-15T16:06:26.708Z,101770.19
2023-04-15T16:08:53.604Z,101762.44
2023-04-15T16:11:20.408Z,101764.03
2023-04-15T16:13:47.038Z,101701.50
2023-04-15T16:16:13.783Z,101764.78
2023-04-15T16:18:40.665Z,101746.34
2023-04-15T16:21:07.331Z,101765.94
2023-04-15T16:23:34.038Z,101761.06
2023-04-15T16:26:01.062Z,101758.41
2023-04-15T16:28:27.723Z,101778.63
2023-04-15T16:30:55.192Z,101757.72
2023-04-15T16:33:22.039Z,101757.72
2023-04-15T16:35:48.749Z,101786.28
2023-04-15T16:38:15.641Z,101784.91
2023-04-15T16:40:42.640Z,101783.19
2023-04-15T16:43:11.356Z,101798.66
2023-04-15T16:45:38.660Z,101789.06
2023-04-15T16:48:05.900Z,101795.53
2023-04-15T16:50:32.724Z,101783.56
2023-04-15T16:52:59.527Z,101801.56
2023-04-15T16:55:26.356Z,101781.81
2023-04-15T16:58:01.991Z,101808.09
2023-04-15T17:00:31.741Z,101787.09
2023-04-15T17:03:00.133Z,101784.56
2023-04-15T17:05:27.731Z,101801.53
2023-04-15T17:07:54.823Z,101826.63
2023-04-15T17:10:21.614Z,101822.28
2023-04-15T17:12:49.759Z,101819.81
2023-04-15T17:15:16.658Z,101825.84
2023-04-15T17:17:43.420Z,101833.03
2023-04-15T17:20:11.226Z,101825.41
2023-04-15T17:22:38.158Z,101835.59
2023-04-15T17:25:05.255Z,101828.34
2023-04-15T17:27:31.958Z,101822.00
2023-04-15T17:29:58.666Z,101850.59
2023-04-15T17:32:31.611Z,101855.88
2023-04-15T17:34:58.483Z,101830.63
2023-04-15T17:37:25.473Z,101822.25
2023-04-15T17:39:52.349Z,101842.63
2023-04-15T17:42:19.019Z,101837.81
2023-04-15T17:44:46.057Z,101792.75
2023-04-15T17:47:12.673Z,101849.28
2023-04-15T17:49:39.481Z,101833.28
2023-04-15T17:52:06.625Z,101835.34
2023-04-15T17:54:33.230Z,101854.78
2023-04-15T17:57:00.210Z,101853.94
2023-04-15T17:59:27.954Z,101867.72
2023-04-15T18:01:54.934Z,101856.69
2023-04-15T18:04:23.999Z,101854.53
2023-04-15T18:06:52.807Z,101875.19
2023-04-15T18:09:19.448Z,101808.03
2023-04-15T18:11:48.393Z,101866.78
2023-04-15T18:14:26.589Z,101861.59
2023-04-15T18:17:00.043Z,101869.34
2023-04-15T18:19:27.399Z,101868.84
2023-04-15T18:21:54.413Z,101879.25
2023-04-15T18:24:21.087Z,101893.47
2023-04-15T18:26:49.139Z,101903.22
2023-04-15T18:29:16.394Z,101871.88
2023-04-15T18:31:43.239Z,101897.28
2023-04-15T18:34:10.256Z,101878.56
2023-04-15T18:36:37.010Z,101894.31
2023-04-15T18:39:04.454Z,101898.31
2023-04-15T18:41:31.409Z,101897.44
2023-04-15T18:43:58.065Z,101921.44
2023-04-15T18:46:24.687Z,101929.34
2023-04-15T18:48:51.782Z,101905.69
2023-04-15T18:51:18.458Z,101925.19
2023-04-15T18:53:45.047Z,101939.75
2023-04-15T18:56:11.806Z,101938.78
2023-04-15T18:59:28.634Z,101930.31
2023-04-15T19:01:26.483Z,101935.97
2023-04-15T19:03:53.288Z,101955.31
2023-04-15T19:06:19.949Z,101947.88
2023-04-15T19:08:47.261Z,101965.44
2023-04-15T19:11:14.095Z,101972.31
2023-04-15T19:13:40.845Z,101939.94
2023-04-15T19:16:07.746Z,101940.13
2023-04-15T19:18:34.425Z,101958.63
2023-04-15T19:21:01.084Z,101960.31
2023-04-15T19:23:27.894Z,101952.03
2023-04-15T19:25:54.495Z,101972.44
2023-04-15T19:28:21.180Z,101970.25
2023-04-15T19:30:47.897Z,101953.72
2023-04-15T19:33:14.536Z,101947.13
2023-04-15T19:35:41.313Z,101982.16
2023-04-15T19:38:08.144Z,101961.56
2023-04-15T19:40:34.753Z,101977.03
2023-04-15T19:43:01.327Z,101977.88
2023-04-15T19:45:28.607Z,101956.56
2023-04-15T19:47:55.363Z,101977.25
2023-04-15T19:50:25.977Z,101990.81
2023-04-15T19:52:53.532Z,101975.41
2023-04-15T19:55:20.459Z,101975.34
2023-04-15T19:57:47.124Z,101976.00
2023-04-15T20:00:14.029Z,101957.50
2023-04-15T20:02:41.009Z,101974.31
2023-04-15T20:05:10.001Z,101979.59
2023-04-15T20:07:36.933Z,101978.25
2023-04-15T20:10:12.470Z,101949.75
2023-04-15T20:12:50.271Z,101962.41
2023-04-15T20:15:19.088Z,101947.78
2023-04-15T20:17:45.998Z,101946.34
2023-04-15T20:20:12.753Z,101981.75
2023-04-15T20:22:39.403Z,101966.19
2023-04-15T20:25:06.654Z,101956.09
2023-04-15T20:27:33.452Z,101981.59
2023-04-15T20:30:00.462Z,101972.69
2023-04-15T20:32:28.485Z,101961.00
2023-04-15T20:34:55.331Z,101975.81
2023-04-15T20:37:22.447Z,101985.06
2023-04-15T20:39:49.298Z,101972.19
2023-04-15T20:42:16.162Z,101977.47
2023-04-15T20:44:42.908Z,101957.47
2023-04-15T20:47:10.084Z,101962.59
2023-04-15T20:49:38.524Z,101979.38
2023-04-15T20:52:07.012Z,101987.41
2023-04-15T20:54:34.127Z,101967.66
2023-04-15T20:57:01.770Z,101965.97
2023-04-15T20:59:28.737Z,101988.03
2023-04-15T21:01:57.163Z,101975.50
2023-04-15T21:04:24.548Z,101988.03
2023-04-15T21:06:52.338Z,101985.97
2023-04-15T21:09:19.335Z,101993.81
2023-04-15T21:14:20.524Z,101984.28
2023-04-15T21:16:47.263Z,101970.84
2023-04-15T21:19:13.926Z,101991.06
2023-04-15T21:21:40.975Z,101965.03
2023-04-15T21:24:07.924Z,101954.94
2023-04-15T21:26:36.094Z,101994.84
2023-04-15T21:29:03.388Z,101934.34
2023-04-15T21:31:30.609Z,101994.69
2023-04-15T21:33:57.440Z,101961.06
2023-04-15T21:36:24.251Z,102002.69
2023-04-15T21:38:50.862Z,102003.56
2023-04-15T21:41:17.620Z,102013.75
2023-04-15T21:43:44.571Z,102002.50
2023-04-15T21:46:23.229Z,102025.81
2023-04-15T21:48:53.041Z,102032.16
2023-04-15T21:51:19.669Z,102039.81
2023-04-15T21:53:46.379Z,102024.31
2023-04-15T21:56:13.171Z,102050.38
2023-04-15T21:58:39.853Z,102030.09
2023-04-15T22:01:06.629Z,102041.22
2023-04-15T22:03:34.702Z,102021.13
2023-04-15T22:06:03.129Z,102046.91
2023-04-15T22:08:31.002Z,102036.03
2023-04-15T22:11:00.672Z,102046.06
2023-04-15T22:13:27.359Z,102045.88
2023-04-15T22:15:54.023Z,102045.75
2023-04-15T22:18:20.725Z,102038.22
2023-04-15T22:20:47.445Z,102057.19
2023-04-15T22:23:17.456Z,102052.88
2023-04-15T22:25:44.579Z,102047.75
2023-04-15T22:28:11.305Z,102061.44
2023-04-15T22:30:39.450Z,102059.66
2023-04-15T22:33:07.476Z,102023.75
2023-04-15T22:35:36.183Z,102054.38
2023-04-15T22:38:04.147Z,102050.78
2023-04-15T22:40:31.121Z,102045.66
2023-04-15T22:42:58.005Z,102055.03
2023-04-15T22:45:24.732Z,102066.09
2023-04-15T22:47:51.539Z,102041.06
2023-04-15T22:50:18.292Z,102048.50
2023-04-15T22:52:46.218Z,102045.94
2023-04-15T22:55:13.348Z,102072.47
2023-04-15T22:57:39.929Z,102032.44
2023-04-15T23:00:07.556Z,102065.59
2023-04-15T23:02:35.139Z,102080.16
2023-04-15T23:05:12.532Z,102072.69
2023-04-15T23:07:40.198Z,102074.41
2023-04-15T23:10:08.890Z,102081.94
2023-04-15T23:12:35.556Z,102055.69
2023-04-15T23:15:03.792Z,102066.25
2023-04-15T23:17:30.496Z,102094.97
2023-04-15T23:19:57.106Z,102101.03
2023-04-15T23:22:24.070Z,102109.63
2023-04-15T23:24:50.664Z,102119.38
2023-04-15T23:27:19.044Z,102082.50
2023-04-15T23:29:46.196Z,102103.19
2023-04-15T23:32:12.780Z,102112.28
2023-04-15T23:34:39.396Z,102111.44
2023-04-15T23:37:06.208Z,102102.91
2023-04-15T23:39:32.969Z,102102.91
2023-04-15T23:41:59.621Z,102083.09
2023-04-15T23:44:26.467Z,102100.28
2023-04-15T23:46:53.242Z,102097.63
2023-04-15T23:49:20.609Z,102082.31
2023-04-15T23:51:47.755Z,102108.69
2023-04-15T23:54:15.064Z,102104.44
2023-04-15T23:56:41.726Z,102095.28
2023-04-15T23:59:08.996Z,102112.28
